Time;durP1;ratioP1;P1;durP2;ratioP2;P2;SDS_P1;SDS_P2;PMS_P1;PMS_P2;Temp;Humidity;BMP_temperature;BMP_pressure;BME280_temperature;BME280_humidity;BME280_pressure;Samples;Min_cycle;Max_cycle;Signal;HPM_P1;HPM_P2
2022/02/09 00:05:14;;;;;;;9.43;6.07;;;;;;;6.85;100.00;101648.19;5048649;28;20293;-75
2022/02/09 00:07:47;;;;;;;8.53;6.10;;;;;;;6.84;100.00;101646.44;5095544;28;20232;-74
2022/02/09 00:10:15;;;;;;;10.87;5.70;;;;;;;6.88;100.00;101639.53;5104798;28;20267;-74
2022/02/09 00:12:47;;;;;;;7.73;5.40;;;;;;;6.85;100.00;101640.41;5100478;27;20196;-73
2022/02/09 00:15:26;;;;;;;11.67;6.03;;;;;;;6.82;100.00;101650.75;5101324;28;20304;-75
2022/02/09 00:18:01;;;;;;;7.27;5.17;;;;;;;6.80;100.00;101645.56;5097234;28;20202;-73
2022/02/09 00:20:59;;;;;;;10.20;5.40;;;;;;;6.80;100.00;101647.28;5101671;27;20232;-74
2022/02/09 00:27:02;;;;;;;6.83;5.60;;;;;;;6.77;100.00;101636.88;5095088;27;20651;-81
2022/02/09 00:29:42;;;;;;;9.30;5.50;;;;;;;6.74;100.00;101642.09;5059563;28;20187;-82
2022/02/09 00:32:31;;;;;;;8.50;5.00;;;;;;;6.75;100.00;101643.78;5057465;28;20206;-80
2022/02/09 00:38:29;;;;;;;9.80;5.13;;;;;;;6.72;100.00;101642.06;5020988;28;20696;-79
2022/02/09 01:11:14;;;;;;;7.60;5.00;;;;;;;6.63;100.00;101650.66;5052739;28;20264;-76
2022/02/09 01:11:40;;;;;;;7.60;4.93;;;;;;;6.63;100.00;101647.16;5054627;28;20203;-76
2022/02/09 01:39:09;;;;;;;7.17;4.73;;;;;;;6.69;100.00;101667.09;5044897;28;20244;-75
2022/02/09 01:51:09;;;;;;;9.43;5.10;;;;;;;6.72;100.00;101661.91;5044199;28;20226;-75
2022/02/09 01:55:47;;;;;;;7.97;4.20;;;;;;;6.69;100.00;101655.00;5040277;28;20200;-75
2022/02/09 01:58:13;;;;;;;6.13;4.77;;;;;;;6.72;100.00;101651.53;5042865;28;20229;-75
2022/02/09 02:00:40;;;;;;;6.87;4.30;;;;;;;6.74;100.00;101652.44;5038303;28;20204;-76
2022/02/09 02:03:06;;;;;;;5.07;4.17;;;;;;;6.74;100.00;101661.09;5042268;28;20204;-75
2022/02/09 02:05:35;;;;;;;5.20;3.97;;;;;;;6.76;100.00;101649.00;5040894;28;20631;-75
2022/02/09 02:08:03;;;;;;;4.00;3.60;;;;;;;6.76;100.00;101638.63;5041514;28;20230;-75
2022/02/09 02:10:38;;;;;;;6.60;3.93;;;;;;;6.76;100.00;101633.44;5042610;28;20346;-74
2022/02/09 02:13:26;;;;;;;4.70;4.20;;;;;;;6.76;100.00;101645.53;5040352;28;20198;-76
2022/02/09 02:16:14;;;;;;;5.50;3.90;;;;;;;6.76;100.00;101648.13;5039614;28;20214;-75
2022/02/09 02:18:42;;;;;;;5.30;3.97;;;;;;;6.79;100.00;101645.56;5045565;28;20682;-76
2022/02/09 02:21:23;;;;;;;4.47;3.80;;;;;;;6.77;100.00;101649.84;5039866;28;20282;-76
2022/02/09 02:24:20;;;;;;;6.07;4.03;;;;;;;6.75;100.00;101630.84;5043683;28;20294;-75
2022/02/09 02:26:58;;;;;;;5.27;3.73;;;;;;;6.81;100.00;101649.03;5039275;28;20207;-76
2022/02/09 02:32:39;;;;;;;5.03;4.00;;;;;;;6.86;100.00;101651.63;5036662;28;20696;-75
2022/02/09 02:38:24;;;;;;;4.63;3.97;;;;;;;6.88;100.00;101665.47;5038597;28;20633;-76
2022/02/09 02:57:40;;;;;;;5.03;3.67;;;;;;;6.87;100.00;101658.56;5040741;28;20601;-76
2022/02/09 03:11:12;;;;;;;4.27;3.73;;;;;;;6.84;100.00;101651.63;5039551;28;20280;-76
2022/02/09 03:13:50;;;;;;;5.70;3.90;;;;;;;6.82;100.00;101638.69;5042864;28;20287;-75
2022/02/09 03:16:26;;;;;;;5.07;3.90;;;;;;;6.81;100.00;101636.94;5040383;28;20213;-75
2022/02/09 03:19:15;;;;;;;4.07;3.30;;;;;;;6.82;100.00;101642.97;5041539;28;20269;-76
2022/02/09 03:21:47;;;;;;;4.60;3.50;;;;;;;6.85;100.00;101647.31;5034439;28;20208;-75
2022/02/09 03:24:18;;;;;;;6.83;3.70;;;;;;;6.83;100.00;101636.94;5040286;28;21011;-75
2022/02/09 03:43:39;;;;;;;6.17;4.40;;;;;;;6.88;100.00;101643.03;5059638;28;20658;-74
2022/02/09 03:49:04;;;;;;;5.33;3.97;;;;;;;6.88;100.00;101648.19;5056412;28;20235;-75
2022/02/09 03:52:00;;;;;;;7.60;4.03;;;;;;;6.87;100.00;101643.00;5057597;28;20206;-75
2022/02/09 03:54:33;;;;;;;6.20;4.57;;;;;;;6.89;100.00;101638.69;5060261;28;20210;-75
2022/02/09 03:57:03;;;;;;;4.07;3.50;;;;;;;6.87;100.00;101628.31;5060165;28;20207;-75
2022/02/09 03:59:31;;;;;;;6.77;4.07;;;;;;;6.86;100.00;101633.47;5056951;28;20292;-75
2022/02/09 04:01:59;;;;;;;7.53;4.50;;;;;;;6.86;100.00;101636.06;5056163;28;20243;-74
2022/02/09 04:04:26;;;;;;;5.93;3.80;;;;;;;6.87;100.00;101638.69;5056232;28;20700;-75
2022/02/09 04:06:53;;;;;;;9.47;3.93;;;;;;;6.86;100.00;101636.97;5057620;28;20206;-74
2022/02/09 04:09:21;;;;;;;3.90;3.50;;;;;;;6.84;100.00;101638.66;5055226;28;20596;-73
2022/02/09 04:11:53;;;;;;;5.80;3.67;;;;;;;6.82;100.00;101636.09;5056374;28;20207;-74
2022/02/09 04:14:28;;;;;;;7.03;3.97;;;;;;;6.83;100.00;101631.75;5055709;28;20276;-75
2022/02/09 04:17:05;;;;;;;7.37;3.83;;;;;;;6.85;100.00;101631.78;5054492;28;20204;-75
2022/02/09 04:19:41;;;;;;;5.10;3.90;;;;;;;6.87;100.00;101627.44;5056276;28;20239;-75
2022/02/09 04:22:58;;;;;;;5.37;4.07;;;;;;;6.88;100.00;101626.56;5073215;28;20293;-75
2022/02/09 04:36:27;;;;;;;7.90;3.67;;;;;;;6.94;100.00;101634.41;5059354;28;20400;-75
2022/02/09 04:38:58;;;;;;;4.93;3.70;;;;;;;6.94;100.00;101635.25;5055575;28;20226;-75
2022/02/09 04:41:47;;;;;;;5.07;3.90;;;;;;;6.93;100.00;101637.84;5049570;28;20203;-75
2022/02/09 04:44:33;;;;;;;4.63;3.23;;;;;;;6.93;100.00;101641.31;5044064;28;20195;-75
2022/02/09 04:50:08;;;;;;;4.47;3.70;;;;;;;6.95;100.00;101630.97;5042189;28;20239;-75
2022/02/09 04:52:53;;;;;;;3.50;3.20;;;;;;;6.93;100.00;101628.34;5043236;28;20203;-75
2022/02/09 04:58:12;;;;;;;5.47;3.30;;;;;;;6.92;100.00;101621.44;5040188;28;20666;-74
2022/02/09 05:00:48;;;;;;;3.80;3.07;;;;;;;6.95;100.00;101638.75;5042254;28;20593;-75
2022/02/09 05:22:53;;;;;;;5.37;3.70;;;;;;;6.87;100.00;101623.13;5046233;28;20256;-74
2022/02/09 05:25:46;;;;;;;4.57;3.50;;;;;;;6.84;100.00;101623.09;5022340;28;20319;-75
2022/02/09 05:28:15;;;;;;;3.63;3.20;;;;;;;6.83;100.00;101618.78;5009644;28;20272;-75
2022/02/09 05:30:45;;;;;;;3.57;3.13;;;;;;;6.81;100.00;101616.19;5000816;28;20944;-75
2022/02/09 05:33:11;;;;;;;5.53;3.60;;;;;;;6.77;100.00;101608.38;5003334;28;20200;-75
2022/02/09 05:35:38;;;;;;;6.30;3.43;;;;;;;6.72;100.00;101612.66;4998002;28;20214;-75
2022/02/09 05:38:07;;;;;;;4.27;3.00;;;;;;;6.71;100.00;101609.22;5017444;28;20205;-75
2022/02/09 05:40:35;;;;;;;5.03;3.10;;;;;;;6.68;100.00;101610.94;5000646;28;20217;-75
2022/02/09 05:43:01;;;;;;;4.83;3.37;;;;;;;6.66;100.00;101617.84;5003651;28;20209;-75
2022/02/09 05:45:36;;;;;;;4.37;3.23;;;;;;;6.61;100.00;101616.09;5003572;28;20209;-75
2022/02/09 05:50:53;;;;;;;4.93;3.70;;;;;;;6.60;100.00;101622.13;4998567;28;20213;-73
2022/02/09 05:53:24;;;;;;;4.47;3.37;;;;;;;6.60;100.00;101621.25;5000303;28;20213;-75
2022/02/09 05:56:04;;;;;;;4.20;3.53;;;;;;;6.60;100.00;101621.25;4997960;28;20583;-75
2022/02/09 05:58:37;;;;;;;3.97;3.30;;;;;;;6.60;100.00;101627.31;5003909;28;20673;-75
2022/02/09 06:01:05;;;;;;;4.70;3.67;;;;;;;6.56;100.00;101629.84;4998132;28;20283;-75
2022/02/09 06:03:32;;;;;;;4.93;3.53;;;;;;;6.54;100.00;101628.97;4999616;28;20206;-73
2022/02/09 06:05:59;;;;;;;5.40;3.83;;;;;;;6.54;100.00;101639.34;4999089;28;20209;-74
2022/02/09 06:08:26;;;;;;;4.03;3.60;;;;;;;6.54;100.00;101626.38;5002771;28;20238;-75
2022/02/09 06:11:08;;;;;;;5.57;3.83;;;;;;;6.54;100.00;101634.16;4999618;28;20236;-75
2022/02/09 06:13:51;;;;;;;5.03;3.90;;;;;;;6.54;100.00;101635.00;5002748;28;20700;-76
2022/02/09 06:21:48;;;;;;;4.27;3.33;;;;;;;6.50;100.00;101637.59;5000003;28;20196;-75
2022/02/09 06:24:14;;;;;;;4.07;3.67;;;;;;;6.51;100.00;101635.03;5000330;28;20206;-75
2022/02/09 06:26:42;;;;;;;4.57;3.67;;;;;;;6.48;100.00;101634.13;4994580;28;20209;-74
2022/02/09 06:29:09;;;;;;;4.97;4.00;;;;;;;6.49;100.00;101639.34;4996606;28;20316;-75
2022/02/09 06:31:37;;;;;;;5.43;4.40;;;;;;;6.51;100.00;101640.22;4998650;28;20200;-75
2022/02/09 06:34:03;;;;;;;4.87;4.13;;;;;;;6.52;100.00;101638.47;4997858;28;20204;-75
2022/02/09 06:36:31;;;;;;;3.77;3.40;;;;;;;6.52;100.00;101635.88;5001913;28;20197;-75
2022/02/09 06:39:06;;;;;;;5.00;3.87;;;;;;;6.55;100.00;101641.09;4999004;28;20728;-75
2022/02/09 06:41:33;;;;;;;5.07;3.83;;;;;;;6.52;100.00;101631.56;5001200;28;20645;-75
2022/02/09 06:44:01;;;;;;;5.47;3.80;;;;;;;6.51;100.00;101634.13;4998236;28;20211;-74
2022/02/09 06:46:32;;;;;;;6.23;3.67;;;;;;;6.53;100.00;101638.47;4999099;28;20211;-75
2022/02/09 06:49:03;;;;;;;4.67;3.80;;;;;;;6.56;100.00;101632.44;4999256;28;20320;-74
2022/02/09 06:51:33;;;;;;;4.97;4.23;;;;;;;6.57;100.00;101631.59;5000969;28;20206;-75
2022/02/09 06:54:03;;;;;;;4.60;3.63;;;;;;;6.56;100.00;101632.44;4995584;28;20224;-74
2022/02/09 06:56:43;;;;;;;4.43;4.00;;;;;;;6.55;100.00;101631.59;4999787;28;20295;-75
2022/02/09 06:59:20;;;;;;;4.57;3.73;;;;;;;6.56;100.00;101630.75;4996965;28;20240;-75
2022/02/09 07:01:47;;;;;;;5.07;3.33;;;;;;;6.59;100.00;101633.31;4994532;28;20212;-75
2022/02/09 07:04:14;;;;;;;5.37;4.20;;;;;;;6.58;100.00;101641.13;5007405;28;20223;-74
2022/02/09 07:06:41;;;;;;;5.47;3.70;;;;;;;6.59;100.00;101627.28;5000739;28;20216;-75
2022/02/09 07:09:07;;;;;;;5.60;3.70;;;;;;;6.61;100.00;101620.38;5001552;28;20224;-75
2022/02/09 07:11:36;;;;;;;5.90;4.10;;;;;;;6.63;100.00;101622.16;5000400;28;20215;-74
2022/02/09 07:14:02;;;;;;;5.50;4.17;;;;;;;6.66;100.00;101630.78;4997244;28;20205;-74
2022/02/09 07:16:31;;;;;;;5.10;3.70;;;;;;;6.65;100.00;101619.56;4999526;28;20224;-74
2022/02/09 07:18:57;;;;;;;4.17;3.77;;;;;;;6.66;100.00;101615.25;4998891;28;20225;-75
2022/02/09 07:21:27;;;;;;;4.23;3.80;;;;;;;6.67;100.00;101620.44;4998374;28;20296;-75
2022/02/09 07:24:03;;;;;;;4.27;3.60;;;;;;;6.70;100.00;101623.06;5000092;28;20228;-75
2022/02/09 07:26:42;;;;;;;4.73;3.77;;;;;;;6.72;100.00;101615.25;5005440;28;20737;-75
2022/02/09 07:29:08;;;;;;;4.27;3.50;;;;;;;6.73;100.00;101623.03;4999757;28;20228;-75
2022/02/09 07:31:36;;;;;;;3.93;3.40;;;;;;;6.75;100.00;101620.47;5005988;28;20205;-75
2022/02/09 07:34:03;;;;;;;4.03;3.57;;;;;;;6.75;100.00;101620.47;5001893;28;20217;-74
2022/02/09 07:36:35;;;;;;;3.73;3.27;;;;;;;6.76;100.00;101617.03;5004498;28;20200;-74
2022/02/09 07:39:02;;;;;;;4.27;3.70;;;;;;;6.76;100.00;101606.66;4999881;28;20225;-75
2022/02/09 07:41:29;;;;;;;3.97;3.57;;;;;;;6.77;100.00;101609.28;5002506;28;20208;-75
2022/02/09 07:44:12;;;;;;;5.77;3.60;;;;;;;6.77;100.00;101609.28;4998790;28;20756;-75
2022/02/09 07:46:56;;;;;;;3.90;3.30;;;;;;;6.78;100.00;101610.13;5004054;28;20212;-75
2022/02/09 07:49:25;;;;;;;4.00;3.17;;;;;;;6.79;100.00;101619.66;4997921;28;20231;-74
2022/02/09 07:52:01;;;;;;;5.10;3.93;;;;;;;6.81;100.00;101615.34;5004875;28;20678;-75
2022/02/09 07:54:28;;;;;;;7.27;3.80;;;;;;;6.81;100.00;101621.38;4995410;28;20263;-74
2022/02/09 07:56:54;;;;;;;4.53;3.73;;;;;;;6.82;100.00;101619.63;4998309;28;20618;-75
2022/02/09 07:59:21;;;;;;;5.03;4.00;;;;;;;6.83;100.00;101621.38;5002271;28;20220;-74
2022/02/09 08:01:49;;;;;;;4.20;3.70;;;;;;;6.86;100.00;101625.72;5002802;28;20213;-75
2022/02/09 08:04:15;;;;;;;5.30;4.17;;;;;;;6.86;100.00;101629.19;4998307;28;20201;-75
2022/02/09 08:06:42;;;;;;;4.50;3.77;;;;;;;6.86;100.00;101631.78;5000869;28;20220;-75
2022/02/09 08:09:16;;;;;;;5.20;3.93;;;;;;;6.86;100.00;101636.06;4998660;28;20224;-75
2022/02/09 08:11:52;;;;;;;4.43;3.87;;;;;;;6.87;100.00;101632.63;4999243;28;20300;-75
2022/02/09 08:33:29;;;;;;;4.80;3.77;;;;;;;6.95;100.00;101620.59;4999560;28;20211;-73
2022/02/09 08:35:56;;;;;;;4.70;3.30;;;;;;;6.98;100.00;101612.81;5017862;28;20234;-75
2022/02/09 08:38:27;;;;;;;5.20;4.57;;;;;;;7.04;100.00;101612.00;4999893;28;20207;-75
2022/02/09 08:40:55;;;;;;;8.20;5.60;;;;;;;7.05;100.00;101611.09;5006059;28;20205;-75
2022/02/09 08:43:21;;;;;;;7.17;5.37;;;;;;;7.08;100.00;101608.53;5002937;28;20289;-75
2022/02/09 08:45:48;;;;;;;7.13;4.90;;;;;;;7.09;100.00;101610.25;5005592;28;20201;-74
2022/02/09 08:48:14;;;;;;;4.17;3.57;;;;;;;7.12;100.00;101616.31;5015299;28;20727;-75
2022/02/09 08:50:42;;;;;;;4.30;3.57;;;;;;;7.14;100.00;101601.66;5001879;28;20205;-75
2022/02/09 08:53:08;;;;;;;4.07;3.47;;;;;;;7.18;100.00;101602.53;5001693;28;20686;-74
2022/02/09 08:55:36;;;;;;;5.60;3.57;;;;;;;7.24;100.00;101601.69;5003360;28;20233;-75
2022/02/09 08:58:04;;;;;;;3.73;3.33;;;;;;;7.27;100.00;101599.97;5001311;28;20207;-75
2022/02/09 09:00:36;;;;;;;5.57;3.50;;;;;;;7.30;100.00;101602.56;5003443;28;20229;-75
2022/02/09 09:03:11;;;;;;;5.30;3.60;;;;;;;7.31;100.00;101606.88;5002190;28;20216;-75
2022/02/09 09:05:45;;;;;;;4.07;3.43;;;;;;;7.33;100.00;101604.28;5004149;28;20261;-74
2022/02/09 09:08:37;;;;;;;5.70;3.80;;;;;;;7.36;100.00;101599.97;4998268;28;20210;-75
2022/02/09 09:11:44;;;;;;;5.20;4.47;;;;;;;7.40;100.00;101606.03;5005291;28;20256;-74
2022/02/09 09:58:10;;;;;;;2.60;2.13;;;;;;;7.59;99.06;101614.75;4999550;28;20212;-75
2022/02/09 10:03:47;;;;;;;3.37;2.67;;;;;;;7.64;98.55;101610.44;5003200;28;20702;-75
2022/02/09 10:34:25;;;;;;;2.40;1.90;;;;;;;7.99;95.35;101585.38;5000939;28;20211;-75
2022/02/09 10:36:57;;;;;;;2.20;2.00;;;;;;;8.02;96.15;101580.16;5002145;28;20595;-75
2022/02/09 10:39:32;;;;;;;2.33;2.13;;;;;;;8.01;95.38;101587.09;5003061;28;20238;-74
2022/02/09 10:42:09;;;;;;;3.33;2.00;;;;;;;7.99;94.67;101587.97;5001960;28;20194;-74
2022/02/09 10:44:45;;;;;;;2.27;1.93;;;;;;;8.00;95.67;101589.69;5001972;28;20700;-75
2022/02/09 10:47:22;;;;;;;2.40;2.17;;;;;;;7.96;94.87;101594.00;4998263;28;20208;-74
2022/02/09 10:50:15;;;;;;;2.20;2.00;;;;;;;7.94;94.46;101585.34;4998747;28;20220;-75
2022/02/09 10:52:47;;;;;;;2.87;2.00;;;;;;;7.90;94.73;101578.44;4994823;28;20914;-74
2022/02/09 10:55:30;;;;;;;2.20;1.70;;;;;;;7.88;95.72;101580.16;5002060;28;20210;-75
2022/02/09 10:57:57;;;;;;;1.80;1.70;;;;;;;7.87;94.16;101575.84;4998044;28;20210;-75
2022/02/09 11:00:25;;;;;;;2.53;2.30;;;;;;;7.88;94.18;101574.94;5001734;28;20343;-75
2022/02/09 11:02:53;;;;;;;2.20;2.00;;;;;;;7.85;94.32;101569.78;5002284;28;20201;-75
2022/02/09 11:05:20;;;;;;;2.20;2.00;;;;;;;7.86;94.81;101567.19;5002638;28;20200;-74
2022/02/09 11:07:47;;;;;;;3.23;2.13;;;;;;;7.82;94.42;101556.78;4998953;28;20211;-75
2022/02/09 11:10:14;;;;;;;2.10;1.80;;;;;;;7.84;94.42;101555.06;5002849;28;20282;-75
2022/02/09 11:12:42;;;;;;;2.17;1.97;;;;;;;7.85;94.24;101564.59;5000430;28;20200;-74
2022/02/09 11:15:10;;;;;;;2.30;2.00;;;;;;;7.85;93.94;101559.41;4999919;28;20328;-75
2022/02/09 11:17:46;;;;;;;2.17;1.87;;;;;;;7.86;93.89;101568.91;5001877;28;20213;-74
2022/02/09 11:20:14;;;;;;;2.10;1.90;;;;;;;7.87;94.47;101568.03;5001792;28;20278;-75
2022/02/09 11:22:42;;;;;;;2.50;2.30;;;;;;;7.85;93.73;101554.22;4995397;28;20294;-74
2022/02/09 11:25:14;;;;;;;2.10;1.90;;;;;;;7.82;93.96;101562.84;5000791;28;20262;-74
2022/02/09 11:27:47;;;;;;;2.10;1.90;;;;;;;7.81;93.86;101568.03;5002289;28;20519;-73
2022/02/09 11:30:23;;;;;;;2.57;1.90;;;;;;;7.76;93.71;101563.72;5000218;28;20263;-75
2022/02/09 11:33:07;;;;;;;3.10;2.03;;;;;;;7.74;93.91;101562.84;5001889;28;20210;-74
2022/02/09 11:35:42;;;;;;;2.40;2.20;;;;;;;7.73;94.44;101555.91;5001641;28;20273;-75
2022/02/09 11:38:15;;;;;;;3.73;2.07;;;;;;;7.72;94.09;101562.00;5003308;28;20690;-75
2022/02/09 11:40:49;;;;;;;2.80;2.30;;;;;;;7.69;94.84;101554.19;5000134;28;20683;-74
2022/02/09 11:46:41;;;;;;;2.50;2.20;;;;;;;7.65;94.03;101556.78;4992092;28;20935;-75
2022/02/09 11:49:37;;;;;;;2.87;2.10;;;;;;;7.66;94.06;101561.97;5003130;28;20624;-75
2022/02/09 11:55:32;;;;;;;3.30;2.00;;;;;;;7.72;94.57;101535.13;5007508;28;20829;-75
2022/02/09 12:10:26;;;;;;;1.90;1.70;;;;;;;8.09;93.95;101537.72;5002323;28;20226;-75
2022/02/09 12:13:07;;;;;;;2.13;1.93;;;;;;;8.17;93.00;101538.59;5003091;28;20215;-74
2022/02/09 12:15:53;;;;;;;2.37;2.13;;;;;;;8.19;92.19;101529.06;5023297;28;20259;-75
2022/02/09 12:18:28;;;;;;;2.10;1.90;;;;;;;8.27;92.12;101523.84;5005003;28;20214;-75
2022/02/09 12:21:14;;;;;;;2.30;1.80;;;;;;;8.32;91.11;101522.13;5007725;28;20630;-74
2022/02/09 12:23:44;;;;;;;2.03;1.83;;;;;;;8.32;91.68;101528.16;5003669;28;20704;-75
2022/02/09 12:26:14;;;;;;;3.80;1.93;;;;;;;8.30;91.80;101519.50;5007012;28;20200;-75
2022/02/09 12:28:43;;;;;;;2.33;2.10;;;;;;;8.32;92.42;101520.38;5000314;28;20232;-75
2022/02/09 12:31:11;;;;;;;2.43;1.67;;;;;;;8.35;91.89;101519.47;5003973;28;20224;-75
2022/02/09 12:33:47;;;;;;;2.90;1.73;;;;;;;8.38;92.47;101508.22;5004351;28;20208;-75
2022/02/09 12:36:16;;;;;;;2.20;2.00;;;;;;;8.37;91.70;101512.53;5003299;28;20315;-74
2022/02/09 12:38:44;;;;;;;2.00;1.50;;;;;;;8.33;91.18;101510.84;5002476;28;20221;-75
2022/02/09 12:41:15;;;;;;;2.20;2.00;;;;;;;8.30;90.95;101511.72;5003695;28;20698;-75
2022/02/09 12:43:51;;;;;;;2.17;1.97;;;;;;;8.34;91.33;101515.19;5002847;28;20209;-74
2022/02/09 12:46:19;;;;;;;3.00;1.90;;;;;;;8.31;90.79;101502.19;5004622;28;20211;-75
2022/02/09 12:48:46;;;;;;;2.07;1.87;;;;;;;8.27;90.33;101496.13;5002919;28;20714;-75
2022/02/09 12:51:21;;;;;;;1.90;1.70;;;;;;;8.28;nan;101502.19;5002824;28;20228;-75
2022/02/09 12:53:48;;;;;;;1.93;1.80;;;;;;;8.19;90.62;101507.41;5020098;28;20236;-75
2022/02/09 12:56:24;;;;;;;1.73;1.63;;;;;;;8.17;90.66;101503.97;5005102;28;20203;-74
2022/02/09 12:59:00;;;;;;;2.17;1.73;;;;;;;8.18;91.86;101498.75;5003238;28;20224;-74
2022/02/09 13:01:26;;;;;;;3.23;1.93;;;;;;;8.18;91.30;101495.28;5001972;28;20215;-75
2022/02/09 13:03:53;;;;;;;2.00;1.80;;;;;;;8.16;91.18;101487.47;5001113;28;20212;-75
2022/02/09 13:06:19;;;;;;;3.00;2.20;;;;;;;8.15;91.54;101496.16;5004466;28;20212;-75
2022/02/09 13:08:53;;;;;;;2.33;2.10;;;;;;;8.15;91.93;101502.22;5003165;28;20668;-75
2022/02/09 13:11:26;;;;;;;2.70;1.83;;;;;;;8.15;91.95;101498.75;5002131;28;20225;-75
2022/02/09 13:14:02;;;;;;;3.30;2.10;;;;;;;8.13;91.30;101496.16;5002710;28;20208;-74
2022/02/09 13:19:56;;;;;;;2.70;2.00;;;;;;;8.08;90.77;101499.66;5002930;28;20388;-75
2022/02/09 13:22:43;;;;;;;3.50;2.10;;;;;;;8.02;91.11;101495.31;5003526;28;20361;-75
2022/02/09 14:08:09;;;;;;;3.43;2.50;;;;;;;7.95;90.99;101484.09;4979042;28;20981;-74
2022/02/09 14:10:53;;;;;;;3.70;2.73;;;;;;;7.96;91.89;101477.16;5002505;28;20326;-75
2022/02/09 14:13:29;;;;;;;2.47;2.07;;;;;;;7.96;91.47;101482.34;5006420;28;20208;-75
2022/02/09 14:16:29;;;;;;;2.60;2.23;;;;;;;7.93;91.58;101479.75;5001779;28;20197;-75
2022/02/09 14:54:42;;;;;;;3.33;1.97;;;;;;;7.65;93.08;101484.97;5002510;28;20219;-75
2022/02/09 14:57:12;;;;;;;2.27;1.93;;;;;;;7.63;93.41;101489.28;5001818;28;20213;-74
2022/02/09 14:59:51;;;;;;;3.20;2.30;;;;;;;7.61;93.82;101485.81;5012384;28;20234;-73
2022/02/09 15:02:23;;;;;;;2.13;1.97;;;;;;;7.57;93.73;101479.78;5001569;28;20695;-74
2022/02/09 15:05:24;;;;;;;4.40;2.00;;;;;;;7.56;93.91;101491.03;5003995;28;20294;-74
2022/02/09 15:08:06;;;;;;;2.63;2.27;;;;;;;7.55;94.45;101484.09;4986846;28;20587;-74
2022/02/09 15:10:40;;;;;;;2.50;2.30;;;;;;;7.52;94.42;101486.69;5001436;28;20238;-74
2022/02/09 15:13:23;;;;;;;2.70;2.10;;;;;;;7.52;93.91;101488.44;4996418;28;20202;-75
2022/02/09 15:15:59;;;;;;;2.33;2.13;;;;;;;7.51;94.11;101484.97;5000814;28;20211;-74
2022/02/09 15:21:20;;;;;;;3.27;1.97;;;;;;;7.51;93.92;101484.97;5000912;28;20678;-75
2022/02/09 15:23:48;;;;;;;2.80;2.20;;;;;;;7.52;94.26;101491.88;5000829;28;20218;-75
2022/02/09 15:26:18;;;;;;;2.13;1.93;;;;;;;7.49;94.34;101484.13;5000674;28;20688;-75
2022/02/09 15:28:44;;;;;;;2.30;2.10;;;;;;;7.48;94.83;101491.91;4998702;28;20280;-75
2022/02/09 15:31:20;;;;;;;2.93;2.10;;;;;;;7.45;95.16;101484.97;5000698;28;20226;-74
2022/02/09 15:34:00;;;;;;;3.03;2.13;;;;;;;7.42;95.59;101471.13;4998852;28;20202;-75
2022/02/09 15:36:45;;;;;;;2.30;2.10;;;;;;;7.39;95.30;101474.59;5003256;28;20224;-75
2022/02/09 15:39:13;;;;;;;4.07;2.20;;;;;;;7.38;95.56;101470.25;5003792;28;20214;-75
2022/02/09 15:41:56;;;;;;;3.00;2.43;;;;;;;7.37;95.68;101478.94;5001351;28;20848;-75
2022/02/09 16:06:39;;;;;;;2.63;2.43;;;;;;;7.29;96.44;101475.44;5001327;28;20208;-75
2022/02/09 16:09:16;;;;;;;2.93;2.23;;;;;;;7.25;96.67;101474.56;5004439;28;20697;-75
2022/02/09 16:23:13;;;;;;;6.00;3.30;;;;;;;7.22;97.25;101473.72;5101415;28;20202;-75
2022/02/09 16:25:57;;;;;;;18.80;9.00;;;;;;;7.19;97.05;101477.16;5098481;28;20587;-74
2022/02/09 16:34:10;;;;;;;3.53;2.90;;;;;;;7.24;97.29;101471.97;5093510;28;20275;-75
2022/02/09 16:44:46;;;;;;;3.87;3.00;;;;;;;7.18;97.73;101473.69;5097520;28;20226;-74
2022/02/09 16:47:28;;;;;;;4.33;3.00;;;;;;;7.19;97.65;101479.75;5094398;28;20227;-74
2022/02/09 16:49:57;;;;;;;3.97;3.00;;;;;;;7.20;97.90;101478.91;5098381;28;20326;-75
2022/02/09 16:52:31;;;;;;;3.87;3.10;;;;;;;7.18;97.70;101484.06;5097882;28;20285;-75
2022/02/09 16:55:17;;;;;;;3.33;2.80;;;;;;;7.18;97.51;101480.63;5096999;28;20674;-75
2022/02/09 17:19:37;;;;;;;3.53;2.50;;;;;;;7.24;97.32;101491.00;5094567;28;20709;-75
2022/02/09 17:22:04;;;;;;;4.13;3.20;;;;;;;7.24;97.56;101484.94;5099821;28;20678;-75
2022/02/09 17:24:32;;;;;;;3.40;3.00;;;;;;;7.23;97.65;101484.09;5097792;28;20261;-75
2022/02/09 17:26:58;;;;;;;3.53;2.80;;;;;;;7.23;97.32;101484.09;5097897;28;20233;-74
2022/02/09 17:29:34;;;;;;;3.63;3.00;;;;;;;7.24;97.53;101485.81;5092086;28;20227;-75
2022/02/09 17:32:07;;;;;;;4.30;2.77;;;;;;;7.24;97.56;101479.75;5086946;28;20223;-75
2022/02/09 17:34:54;;;;;;;5.40;2.77;;;;;;;7.22;97.68;101474.56;5082032;28;20232;-75
2022/02/09 17:37:45;;;;;;;5.60;2.93;;;;;;;7.22;98.05;101465.94;5085392;28;20196;-75
2022/02/09 17:53:58;;;;;;;4.83;3.03;;;;;;;7.19;98.03;101485.81;5085964;28;20261;-75
2022/02/09 17:56:29;;;;;;;5.67;4.63;;;;;;;7.18;98.20;101481.47;5082326;28;20196;-75
2022/02/09 17:58:58;;;;;;;6.60;3.30;;;;;;;7.17;98.59;101482.31;5080886;28;20228;-74
2022/02/09 18:01:24;;;;;;;3.50;2.80;;;;;;;7.16;98.86;101478.03;5082572;28;20195;-74
2022/02/09 18:03:53;;;;;;;3.90;3.00;;;;;;;7.16;98.86;101477.16;5079642;28;20199;-74
2022/02/09 18:06:23;;;;;;;3.60;2.77;;;;;;;7.15;98.80;101478.03;5079231;28;20204;-75
2022/02/09 18:08:57;;;;;;;3.93;3.30;;;;;;;7.14;98.84;101479.75;5083932;28;20223;-75
2022/02/09 18:11:39;;;;;;;3.97;3.03;;;;;;;7.17;98.76;101484.94;5076570;28;20253;-75
2022/02/09 18:14:29;;;;;;;3.50;3.00;;;;;;;7.16;98.89;101482.34;5081935;28;20210;-74
2022/02/09 18:25:37;;;;;;;3.43;2.83;;;;;;;7.17;99.27;101479.72;5076793;28;20215;-75
2022/02/09 18:30:56;;;;;;;5.27;3.03;;;;;;;7.14;99.51;101482.34;5082753;28;20740;-74
2022/02/09 18:39:41;;;;;;;3.47;2.90;;;;;;;7.15;100.00;101485.81;5080645;28;20569;-75
2022/02/09 18:44:59;;;;;;;4.60;2.77;;;;;;;7.14;99.97;101484.94;5052885;28;20770;-75
2022/02/09 18:47:46;;;;;;;2.97;2.57;;;;;;;7.14;100.00;101490.13;5071952;28;20206;-74
2022/02/09 19:04:10;;;;;;;4.00;3.10;;;;;;;7.12;100.00;101496.16;5052171;28;20230;-75
2022/02/09 19:06:58;;;;;;;3.00;2.80;;;;;;;7.11;100.00;101500.50;5082429;28;20218;-74
2022/02/09 19:15:12;;;;;;;3.03;2.73;;;;;;;7.12;100.00;101496.16;5082559;28;20212;-75
2022/02/09 19:17:46;;;;;;;3.10;2.80;;;;;;;7.14;100.00;101495.31;5082863;28;20204;-74
2022/02/09 19:20:27;;;;;;;3.80;3.00;;;;;;;7.15;100.00;101498.75;5078878;28;20692;-75
2022/02/09 19:29:03;;;;;;;5.73;3.10;;;;;;;7.12;100.00;101497.00;5082279;28;20419;-75
2022/02/09 19:31:33;;;;;;;3.57;3.10;;;;;;;7.12;100.00;101499.59;5081997;28;20198;-75
2022/02/09 19:48:08;;;;;;;3.70;3.07;;;;;;;6.99;100.00;101493.53;5036087;28;20446;-75
2022/02/09 19:53:30;;;;;;;4.53;2.87;;;;;;;6.99;100.00;101503.91;5080941;28;20278;-74
2022/02/09 19:55:59;;;;;;;4.90;3.07;;;;;;;6.99;100.00;101500.47;5079059;28;20194;-76
2022/02/09 19:58:37;;;;;;;3.27;2.97;;;;;;;6.97;100.00;101500.44;5075749;28;20357;-77
2022/02/09 20:01:04;;;;;;;3.33;3.03;;;;;;;6.96;100.00;101492.66;5078754;28;20973;-73
2022/02/09 20:03:30;;;;;;;4.17;3.50;;;;;;;6.97;100.00;101495.25;5076043;28;20224;-74
2022/02/09 20:05:57;;;;;;;4.90;3.17;;;;;;;6.99;100.00;101498.72;5075709;28;20196;-75
2022/02/09 20:08:25;;;;;;;4.00;3.07;;;;;;;7.02;100.00;101492.69;5080953;28;20209;-75
2022/02/09 20:10:51;;;;;;;3.90;3.00;;;;;;;7.04;100.00;101496.16;5076931;28;20220;-74
2022/02/09 20:13:18;;;;;;;3.37;3.07;;;;;;;7.03;100.00;101490.97;5081387;28;20204;-75
2022/02/09 20:15:44;;;;;;;3.43;3.07;;;;;;;7.06;100.00;101488.38;5078353;28;20293;-75
2022/02/09 20:18:11;;;;;;;3.97;3.10;;;;;;;7.05;100.00;101489.22;5080558;28;20211;-75
2022/02/09 20:20:37;;;;;;;3.83;3.30;;;;;;;7.01;100.00;101491.81;5075236;28;20216;-74
2022/02/09 20:23:05;;;;;;;3.40;3.10;;;;;;;7.00;100.00;101487.50;5081798;28;20253;-74
2022/02/09 20:25:33;;;;;;;3.37;2.80;;;;;;;7.05;100.00;101494.41;5077617;28;20208;-74
2022/02/09 20:27:59;;;;;;;3.33;3.03;;;;;;;7.03;100.00;101491.81;5075235;28;20691;-75
2022/02/09 20:30:34;;;;;;;3.07;2.63;;;;;;;7.00;100.00;101499.56;5078534;28;20218;-75
2022/02/09 20:33:04;;;;;;;4.07;3.00;;;;;;;6.95;100.00;101502.19;5078737;28;20201;-75
2022/02/09 20:35:31;;;;;;;3.73;2.90;;;;;;;6.94;100.00;101500.44;5081131;28;20236;-75